Time;durP1;ratioP1;P1;durP2;ratioP2;P2;SDS_P1;SDS_P2;PMS_P1;PMS_P2;Temp;Humidity;BMP_temperature;BMP_pressure;BME280_temperature;BME280_humidity;BME280_pressure;Samples;Min_cycle;Max_cycle;Signal;HPM_P1;HPM_P2
2021/12/22 00:00:14;;;;;;;16.38;8.68;;;3.10;99.90;;;;;;5055753;28;20200;-49
2021/12/22 00:02:46;;;;;;;18.70;9.80;;;3.00;99.90;;;;;;5055575;28;20216;-50
2021/12/22 00:05:15;;;;;;;15.82;10.63;;;2.80;99.90;;;;;;5055368;28;20192;-49
2021/12/22 00:07:43;;;;;;;15.05;9.05;;;2.70;99.90;;;;;;5054015;28;20565;-49
2021/12/22 00:10:10;;;;;;;16.95;9.85;;;2.90;99.90;;;;;;5055672;28;20195;-50
2021/12/22 00:12:37;;;;;;;15.02;9.43;;;2.90;99.90;;;;;;5055214;28;20573;-49
2021/12/22 00:15:05;;;;;;;16.88;9.35;;;2.50;99.90;;;;;;5055212;28;20235;-50
2021/12/22 00:17:31;;;;;;;13.25;9.45;;;2.80;99.90;;;;;;5054958;28;20196;-50
2021/12/22 00:19:59;;;;;;;14.52;9.50;;;2.70;99.90;;;;;;5054636;28;20688;-49
2021/12/22 00:22:25;;;;;;;15.75;10.18;;;2.80;99.90;;;;;;5053513;28;20254;-49
2021/12/22 00:24:54;;;;;;;17.23;10.43;;;2.70;99.90;;;;;;5055177;28;20584;-49
2021/12/22 00:27:21;;;;;;;15.52;10.20;;;2.90;99.90;;;;;;5054822;28;20569;-49
2021/12/22 00:29:50;;;;;;;17.17;11.18;;;2.50;99.90;;;;;;5053359;28;20231;-49
2021/12/22 00:32:17;;;;;;;13.57;9.93;;;2.60;99.90;;;;;;5055111;28;20196;-49
2021/12/22 00:34:48;;;;;;;14.02;9.88;;;2.80;99.90;;;;;;5055163;28;20634;-50
2021/12/22 00:37:16;;;;;;;14.70;10.93;;;2.70;99.90;;;;;;5055080;28;20196;-51
2021/12/22 00:39:44;;;;;;;13.30;9.98;;;2.30;99.90;;;;;;5054660;28;20196;-49
2021/12/22 00:42:13;;;;;;;11.70;9.50;;;3.00;99.90;;;;;;5054623;28;20283;-49
2021/12/22 00:44:40;;;;;;;13.95;10.38;;;2.30;99.90;;;;;;5055285;28;20239;-49
2021/12/22 00:47:07;;;;;;;13.68;9.63;;;2.70;99.90;;;;;;5054751;28;20200;-50
2021/12/22 00:49:35;;;;;;;13.18;9.45;;;2.30;99.90;;;;;;5054276;28;20671;-50
2021/12/22 00:52:02;;;;;;;13.02;9.95;;;2.50;99.90;;;;;;5054639;28;20211;-50
2021/12/22 00:54:29;;;;;;;12.30;10.55;;;2.70;99.90;;;;;;5052865;28;20238;-50
2021/12/22 00:57:02;;;;;;;14.32;10.45;;;2.90;99.90;;;;;;5054570;28;20207;-50
2021/12/22 00:59:30;;;;;;;12.77;10.15;;;2.80;99.90;;;;;;5052656;28;20212;-50
2021/12/22 01:01:57;;;;;;;13.13;10.15;;;2.80;99.90;;;;;;5054764;28;20527;-49
2021/12/22 01:04:24;;;;;;;13.52;10.68;;;2.90;99.90;;;;;;5054129;28;20529;-50
2021/12/22 01:06:51;;;;;;;16.63;9.98;;;2.50;99.90;;;;;;5054402;28;20200;-50
2021/12/22 01:09:17;;;;;;;13.85;10.45;;;3.40;99.90;;;;;;5055968;28;20199;-50
2021/12/22 01:11:44;;;;;;;13.90;10.95;;;2.80;99.90;;;;;;5054476;28;20200;-49
2021/12/22 01:14:11;;;;;;;15.07;9.73;;;2.50;99.90;;;;;;5053703;28;20220;-49
2021/12/22 01:16:39;;;;;;;10.32;7.63;;;2.80;99.90;;;;;;5054266;28;20211;-50
2021/12/22 01:19:13;;;;;;;11.65;8.20;;;2.40;99.90;;;;;;5053576;28;20200;-50
2021/12/22 01:21:44;;;;;;;12.57;8.13;;;2.40;99.90;;;;;;5054133;28;20283;-50
2021/12/22 01:24:16;;;;;;;12.48;9.88;;;2.90;99.90;;;;;;5053985;28;20224;-50
2021/12/22 01:26:50;;;;;;;9.75;8.85;;;3.00;99.90;;;;;;5052613;28;20203;-50
2021/12/22 01:29:17;;;;;;;12.32;9.07;;;2.90;99.90;;;;;;5053480;28;20241;-50
2021/12/22 01:31:45;;;;;;;12.98;9.95;;;2.60;99.90;;;;;;5053983;28;20198;-50
2021/12/22 01:34:12;;;;;;;10.57;8.77;;;2.90;99.90;;;;;;5053853;28;20220;-49
2021/12/22 01:36:40;;;;;;;11.50;8.32;;;2.90;99.90;;;;;;5054003;28;20196;-49
2021/12/22 01:39:07;;;;;;;11.60;9.38;;;3.20;99.90;;;;;;5053239;28;20203;-49
2021/12/22 01:41:34;;;;;;;11.30;8.05;;;3.20;99.90;;;;;;5053904;28;20651;-49
2021/12/22 01:44:00;;;;;;;10.65;9.27;;;3.20;99.90;;;;;;5053682;28;20212;-49
2021/12/22 01:49:18;;;;;;;14.48;8.98;;;3.10;99.90;;;;;;5052956;28;20199;-50
2021/12/22 01:51:51;;;;;;;15.07;9.52;;;3.00;99.90;;;;;;5053402;28;20204;-50
2021/12/22 01:54:29;;;;;;;13.82;9.15;;;3.20;99.90;;;;;;5053395;28;20236;-50
2021/12/22 01:57:00;;;;;;;14.05;9.80;;;3.00;99.90;;;;;;5053483;28;20200;-49
2021/12/22 01:59:26;;;;;;;15.57;9.25;;;3.20;99.90;;;;;;5052882;28;20628;-49
2021/12/22 02:01:57;;;;;;;12.65;9.18;;;3.20;99.90;;;;;;5051827;28;20236;-49
2021/12/22 02:04:25;;;;;;;14.98;9.45;;;2.70;99.90;;;;;;5053256;28;20220;-49
2021/12/22 02:06:52;;;;;;;12.00;9.43;;;3.20;99.90;;;;;;5053669;28;20672;-49
2021/12/22 02:09:33;;;;;;;13.75;10.50;;;3.30;99.90;;;;;;5052978;28;20206;-49
2021/12/22 02:12:00;;;;;;;11.60;9.35;;;3.10;99.90;;;;;;5053174;28;20548;-49
2021/12/22 02:14:27;;;;;;;14.40;8.50;;;3.10;99.90;;;;;;5053149;28;20216;-50
2021/12/22 02:16:53;;;;;;;15.32;10.07;;;2.70;99.90;;;;;;5053489;28;20223;-49
2021/12/22 02:19:20;;;;;;;13.90;9.18;;;3.30;99.90;;;;;;5052459;28;20204;-49
2021/12/22 02:21:53;;;;;;;17.92;10.48;;;2.90;99.90;;;;;;5053104;28;20203;-49
2021/12/22 02:24:20;;;;;;;10.18;8.57;;;3.00;99.90;;;;;;5052564;28;20219;-50
2021/12/22 02:26:51;;;;;;;16.05;10.30;;;3.20;99.90;;;;;;5053079;28;20211;-50
2021/12/22 02:29:21;;;;;;;13.48;10.05;;;2.40;99.90;;;;;;5055941;28;20195;-50
2021/12/22 02:32:00;;;;;;;11.82;9.18;;;3.10;99.90;;;;;;5054094;28;20211;-49
2021/12/22 02:34:27;;;;;;;15.32;10.25;;;3.10;99.90;;;;;;5052442;28;20591;-50
2021/12/22 02:36:59;;;;;;;14.00;9.75;;;3.20;99.90;;;;;;5052632;28;20200;-50
2021/12/22 02:39:26;;;;;;;17.23;10.82;;;3.00;99.90;;;;;;5052010;28;20199;-50
2021/12/22 02:42:13;;;;;;;19.10;11.20;;;2.60;99.90;;;;;;5052552;28;20594;-49
2021/12/22 02:44:39;;;;;;;11.73;9.43;;;2.80;99.90;;;;;;5052404;28;20234;-49
2021/12/22 02:47:16;;;;;;;15.63;10.45;;;3.20;99.90;;;;;;5052542;28;20227;-50
2021/12/22 02:49:45;;;;;;;14.55;10.02;;;3.00;99.90;;;;;;5052049;28;20257;-49
2021/12/22 02:52:14;;;;;;;16.45;10.70;;;3.30;99.90;;;;;;5051249;28;20234;-49
2021/12/22 02:54:47;;;;;;;15.27;10.52;;;3.30;99.90;;;;;;5050702;28;20228;-50
2021/12/22 02:57:26;;;;;;;14.77;10.73;;;3.30;99.90;;;;;;5052677;28;20310;-50
2021/12/22 03:00:12;;;;;;;15.00;9.70;;;3.30;99.90;;;;;;5051815;28;20191;-49
2021/12/22 03:02:45;;;;;;;13.68;9.50;;;2.70;99.90;;;;;;5051925;28;20262;-50
2021/12/22 03:05:12;;;;;;;16.30;9.40;;;3.00;99.90;;;;;;5052058;28;20278;-50
2021/12/22 03:07:40;;;;;;;19.83;11.50;;;3.10;99.90;;;;;;5051856;28;20563;-49
2021/12/22 03:10:14;;;;;;;14.43;9.65;;;3.10;99.90;;;;;;5052060;28;20195;-49
2021/12/22 03:12:42;;;;;;;12.20;9.55;;;3.00;99.90;;;;;;5051960;28;20230;-49
2021/12/22 03:15:10;;;;;;;19.60;9.70;;;3.10;99.90;;;;;;5051657;28;20696;-49
2021/12/22 03:17:40;;;;;;;16.65;9.40;;;3.30;99.90;;;;;;5051844;28;20223;-49
2021/12/22 03:20:09;;;;;;;14.85;9.73;;;3.00;99.90;;;;;;5050485;28;20293;-50
2021/12/22 03:22:36;;;;;;;12.57;9.68;;;3.10;99.90;;;;;;5051774;28;20202;-49
2021/12/22 03:25:13;;;;;;;16.95;9.15;;;3.20;99.90;;;;;;5051381;28;20196;-50
2021/12/22 03:27:39;;;;;;;16.52;9.77;;;3.10;99.90;;;;;;5051448;28;20199;-48
2021/12/22 03:30:08;;;;;;;14.77;10.02;;;2.50;99.90;;;;;;5050255;28;20235;-50
2021/12/22 03:32:35;;;;;;;13.93;9.40;;;3.20;99.90;;;;;;5052027;28;20630;-49
2021/12/22 03:35:01;;;;;;;15.80;9.27;;;3.10;99.90;;;;;;5050402;28;20262;-48
2021/12/22 03:37:28;;;;;;;12.57;9.35;;;3.30;99.90;;;;;;5050267;28;20249;-49
2021/12/22 03:39:55;;;;;;;15.77;9.88;;;3.00;99.90;;;;;;5051882;28;20705;-50
2021/12/22 03:42:23;;;;;;;14.00;9.63;;;3.40;99.90;;;;;;5050285;28;20204;-49
2021/12/22 03:44:50;;;;;;;14.80;10.20;;;3.30;99.90;;;;;;5051672;28;20199;-49
2021/12/22 03:47:16;;;;;;;12.43;9.45;;;3.10;99.90;;;;;;5050204;28;20227;-50
2021/12/22 03:49:46;;;;;;;9.93;8.55;;;2.80;99.90;;;;;;5051924;28;20207;-50
2021/12/22 03:52:12;;;;;;;11.18;8.60;;;3.30;99.90;;;;;;5052990;28;20257;-49
2021/12/22 03:54:41;;;;;;;12.10;8.90;;;3.20;99.90;;;;;;5051203;28;20685;-50
2021/12/22 03:57:08;;;;;;;10.30;7.35;;;3.30;99.90;;;;;;5049968;28;20291;-50
2021/12/22 03:59:36;;;;;;;12.00;8.38;;;3.30;99.90;;;;;;5049881;28;20227;-50
2021/12/22 04:02:04;;;;;;;12.32;7.57;;;3.20;99.90;;;;;;5051281;28;20674;-50
2021/12/22 04:04:31;;;;;;;8.88;7.60;;;3.20;99.90;;;;;;5050180;28;20220;-50
2021/12/22 04:06:58;;;;;;;8.13;6.10;;;3.20;99.90;;;;;;5051459;28;20684;-49
2021/12/22 04:09:27;;;;;;;9.40;6.93;;;3.40;99.90;;;;;;5051337;28;20204;-50
2021/12/22 04:11:55;;;;;;;6.72;5.30;;;3.30;99.90;;;;;;5050167;28;20759;-50
2021/12/22 04:14:22;;;;;;;10.93;6.78;;;2.80;99.90;;;;;;5049912;28;20224;-50
2021/12/22 04:16:50;;;;;;;12.73;5.82;;;3.20;99.90;;;;;;5051147;28;20249;-50
2021/12/22 04:19:17;;;;;;;7.70;4.50;;;3.50;99.90;;;;;;5049898;28;20239;-49
2021/12/22 04:21:44;;;;;;;12.75;5.15;;;3.00;99.90;;;;;;5049850;28;20593;-50
2021/12/22 04:24:10;;;;;;;7.25;4.95;;;3.00;99.90;;;;;;5051213;28;20251;-50
2021/12/22 04:26:39;;;;;;;10.43;5.25;;;2.90;99.90;;;;;;5049761;28;20283;-50
2021/12/22 04:29:05;;;;;;;9.18;4.57;;;3.10;99.90;;;;;;5050968;28;20231;-50
2021/12/22 04:31:32;;;;;;;13.48;5.18;;;2.90;99.90;;;;;;5050078;28;20291;-50
2021/12/22 04:34:03;;;;;;;7.85;5.65;;;2.80;99.90;;;;;;5051213;28;20324;-50
2021/12/22 04:36:30;;;;;;;4.32;3.90;;;2.80;99.90;;;;;;5052004;28;20566;-50
2021/12/22 04:38:59;;;;;;;8.23;4.60;;;2.90;99.90;;;;;;5053262;28;20295;-50
2021/12/22 04:41:26;;;;;;;5.38;4.05;;;3.00;99.90;;;;;;5054927;28;20196;-50
2021/12/22 04:43:53;;;;;;;13.05;5.05;;;3.00;99.90;;;;;;5054671;28;20298;-50
2021/12/22 04:46:22;;;;;;;5.90;4.72;;;2.40;99.90;;;;;;5054733;28;20779;-50
2021/12/22 04:48:48;;;;;;;6.13;4.25;;;2.80;99.90;;;;;;5052863;28;20250;-50
2021/12/22 04:51:25;;;;;;;8.38;5.55;;;2.90;99.90;;;;;;5054799;28;20613;-50
2021/12/22 04:53:56;;;;;;;6.35;4.32;;;2.80;99.90;;;;;;5053198;28;20284;-51
2021/12/22 04:56:23;;;;;;;6.45;4.88;;;2.70;99.90;;;;;;5053244;28;20223;-50
2021/12/22 04:58:50;;;;;;;7.32;4.32;;;2.40;99.90;;;;;;5036193;28;20200;-50
2021/12/22 05:01:16;;;;;;;9.02;5.05;;;2.40;99.90;;;;;;5054389;28;20224;-50
2021/12/22 05:03:43;;;;;;;6.93;5.13;;;2.80;99.90;;;;;;5054448;28;20587;-50
2021/12/22 05:06:10;;;;;;;8.13;4.95;;;2.70;99.90;;;;;;5054407;28;20227;-49
2021/12/22 05:08:38;;;;;;;12.60;5.90;;;2.90;99.90;;;;;;5053836;28;20196;-49
2021/12/22 05:11:05;;;;;;;10.10;5.30;;;3.00;99.90;;;;;;5055176;28;20242;-49
2021/12/22 05:13:33;;;;;;;9.63;5.47;;;2.90;99.90;;;;;;5055569;28;20222;-49
2021/12/22 05:16:03;;;;;;;11.48;6.03;;;3.00;99.90;;;;;;5054252;28;20223;-49
2021/12/22 05:18:50;;;;;;;16.00;5.47;;;2.90;99.90;;;;;;5053783;28;20216;-49
2021/12/22 05:21:21;;;;;;;8.30;5.05;;;2.80;99.90;;;;;;5052694;28;20241;-50
2021/12/22 05:23:49;;;;;;;9.05;5.55;;;2.80;99.90;;;;;;5054075;28;20216;-48
2021/12/22 05:26:16;;;;;;;10.85;6.75;;;2.40;99.90;;;;;;5053677;28;20196;-47
2021/12/22 05:28:43;;;;;;;9.23;6.07;;;2.60;99.90;;;;;;5053259;28;20665;-48
2021/12/22 05:31:09;;;;;;;12.63;7.15;;;2.80;99.90;;;;;;5053813;28;20572;-48
2021/12/22 05:33:39;;;;;;;10.27;7.07;;;2.40;99.90;;;;;;5052178;28;20228;-48
2021/12/22 05:36:06;;;;;;;11.70;7.57;;;2.70;99.90;;;;;;5052470;28;20232;-48
2021/12/22 05:38:33;;;;;;;11.48;6.70;;;2.80;99.90;;;;;;5052947;28;20699;-48
2021/12/22 05:41:03;;;;;;;10.23;6.90;;;2.80;99.90;;;;;;5053631;28;20374;-48
2021/12/22 05:43:30;;;;;;;12.85;7.25;;;2.70;99.90;;;;;;5052316;28;20314;-48
2021/12/22 05:45:57;;;;;;;13.82;7.93;;;2.90;99.90;;;;;;5052370;28;20204;-49
2021/12/22 05:48:24;;;;;;;14.02;7.72;;;2.80;99.90;;;;;;5052227;28;20196;-48
2021/12/22 05:50:52;;;;;;;14.73;8.77;;;2.80;99.90;;;;;;5053472;28;20523;-47
2021/12/22 05:53:19;;;;;;;14.23;8.23;;;2.70;99.90;;;;;;5051956;28;20244;-48
2021/12/22 05:55:46;;;;;;;17.10;9.88;;;2.70;99.90;;;;;;5052046;28;20234;-47
2021/12/22 05:58:14;;;;;;;14.25;8.57;;;2.60;99.90;;;;;;5051527;28;20235;-48
2021/12/22 06:00:41;;;;;;;16.13;9.43;;;2.70;99.90;;;;;;5051892;28;20207;-47
2021/12/22 06:03:10;;;;;;;11.93;8.55;;;2.50;99.90;;;;;;5051347;28;20219;-47
2021/12/22 06:05:37;;;;;;;16.85;9.98;;;2.70;99.90;;;;;;5052673;28;20203;-47
2021/12/22 06:08:04;;;;;;;18.33;11.65;;;1.90;99.90;;;;;;5051017;28;20204;-47
2021/12/22 06:10:34;;;;;;;13.95;9.98;;;2.40;99.90;;;;;;5051163;28;20219;-47
2021/12/22 06:13:01;;;;;;;15.68;10.27;;;2.30;99.90;;;;;;5051559;28;20274;-47
2021/12/22 06:15:32;;;;;;;14.50;8.77;;;2.30;99.90;;;;;;5052392;28;20583;-47
2021/12/22 06:18:00;;;;;;;13.82;12.15;;;2.40;99.90;;;;;;5050551;28;20250;-47
2021/12/22 06:20:28;;;;;;;15.40;10.18;;;2.30;99.90;;;;;;5051222;28;20230;-48
2021/12/22 06:22:55;;;;;;;15.05;10.50;;;2.50;99.90;;;;;;5052398;28;20248;-46
2021/12/22 06:25:23;;;;;;;14.35;10.48;;;1.50;99.90;;;;;;5055152;28;20203;-48
2021/12/22 06:27:50;;;;;;;14.88;10.57;;;2.00;99.90;;;;;;5053320;28;20204;-49
2021/12/22 06:30:18;;;;;;;17.90;11.63;;;2.10;99.90;;;;;;5053390;28;20195;-48
2021/12/22 06:32:46;;;;;;;15.85;11.43;;;1.80;99.90;;;;;;5054051;28;20570;-48
2021/12/22 06:35:13;;;;;;;15.70;10.73;;;1.80;99.90;;;;;;5054028;28;20216;-48
2021/12/22 06:37:43;;;;;;;18.80;12.40;;;2.20;99.90;;;;;;5051754;28;20215;-48
2021/12/22 06:40:11;;;;;;;16.77;10.45;;;2.10;99.90;;;;;;5052763;28;20223;-48
2021/12/22 06:42:38;;;;;;;18.77;11.68;;;1.80;99.90;;;;;;5052215;28;20612;-47
2021/12/22 06:45:06;;;;;;;18.55;11.93;;;1.30;99.90;;;;;;5052488;28;20245;-47
2021/12/22 06:47:36;;;;;;;15.18;11.45;;;2.00;99.90;;;;;;5052431;28;20554;-47
2021/12/22 06:50:09;;;;;;;15.38;11.27;;;1.80;99.90;;;;;;5051686;28;20307;-53
2021/12/22 06:52:35;;;;;;;15.80;10.25;;;1.90;99.90;;;;;;5051796;28;20246;-48
2021/12/22 06:55:02;;;;;;;17.42;11.60;;;1.70;99.90;;;;;;5050610;28;20303;-48
2021/12/22 06:57:31;;;;;;;16.00;11.40;;;1.70;99.90;;;;;;5052336;28;20200;-47
2021/12/22 06:59:58;;;;;;;20.13;12.35;;;1.70;99.90;;;;;;5050157;28;20196;-47
2021/12/22 07:02:26;;;;;;;16.83;10.68;;;2.00;99.90;;;;;;5050624;28;20337;-48
2021/12/22 07:04:53;;;;;;;18.02;10.85;;;1.20;99.90;;;;;;5050464;28;20204;-47
2021/12/22 07:07:21;;;;;;;23.73;12.77;;;1.70;99.90;;;;;;5050390;28;20307;-47
2021/12/22 07:09:48;;;;;;;23.83;16.67;;;1.30;99.90;;;;;;5051675;28;20274;-48
2021/12/22 07:12:17;;;;;;;22.50;13.15;;;1.80;99.90;;;;;;5052098;28;20606;-50
2021/12/22 07:14:44;;;;;;;25.85;14.10;;;1.70;99.90;;;;;;5051584;28;20295;-48
2021/12/22 07:17:11;;;;;;;22.88;13.85;;;1.60;99.90;;;;;;5049792;28;20224;-48
2021/12/22 07:19:38;;;;;;;19.60;12.88;;;1.70;99.90;;;;;;5050470;28;20295;-49
2021/12/22 07:22:05;;;;;;;17.45;12.48;;;1.90;99.90;;;;;;5050673;28;20254;-48
2021/12/22 07:24:36;;;;;;;20.92;13.27;;;1.90;99.90;;;;;;5051677;28;20313;-47
2021/12/22 07:27:04;;;;;;;24.17;15.68;;;1.80;99.90;;;;;;5051335;28;20522;-49
2021/12/22 07:29:31;;;;;;;19.02;13.70;;;1.80;99.90;;;;;;5051414;28;20466;-47
2021/12/22 07:31:58;;;;;;;19.73;13.32;;;1.80;99.90;;;;;;5049603;28;20261;-47
2021/12/22 07:34:29;;;;;;;21.60;13.00;;;1.30;99.90;;;;;;5051278;28;20246;-48
2021/12/22 07:37:01;;;;;;;22.25;13.80;;;1.60;99.90;;;;;;5049751;28;20678;-47
2021/12/22 07:39:30;;;;;;;23.25;14.85;;;1.50;99.90;;;;;;5051172;28;20250;-48
2021/12/22 07:41:58;;;;;;;30.17;15.73;;;1.50;99.90;;;;;;5049786;28;20204;-48
2021/12/22 07:44:25;;;;;;;26.23;14.35;;;1.70;99.90;;;;;;5050398;28;20302;-48
2021/12/22 07:46:51;;;;;;;24.73;14.52;;;1.10;99.90;;;;;;5050304;28;20204;-50
2021/12/22 07:49:18;;;;;;;20.38;12.40;;;1.90;99.90;;;;;;5049344;28;20223;-46
2021/12/22 07:51:45;;;;;;;19.10;13.10;;;1.70;99.90;;;;;;5049832;28;20303;-46
2021/12/22 07:54:14;;;;;;;19.23;12.30;;;2.00;99.90;;;;;;5052612;28;20216;-49
2021/12/22 07:56:41;;;;;;;22.10;12.52;;;2.00;99.90;;;;;;5051791;28;20216;-47
2021/12/22 07:59:09;;;;;;;19.25;13.27;;;1.90;99.90;;;;;;5049319;28;20645;-50
2021/12/22 08:01:38;;;;;;;29.85;13.95;;;1.40;99.90;;;;;;5050868;28;20199;-47
2021/12/22 08:04:05;;;;;;;22.55;14.32;;;1.90;99.90;;;;;;5051180;28;20215;-48
2021/12/22 08:06:31;;;;;;;27.05;14.32;;;2.00;99.90;;;;;;5050759;28;20479;-48
2021/12/22 08:08:58;;;;;;;23.92;14.65;;;1.80;99.90;;;;;;5050903;28;20240;-48
2021/12/22 08:11:25;;;;;;;29.73;15.30;;;2.20;99.90;;;;;;5051394;28;20303;-48
2021/12/22 08:13:52;;;;;;;23.30;12.98;;;2.20;99.90;;;;;;5055208;28;20242;-48
2021/12/22 08:16:20;;;;;;;30.60;16.30;;;2.00;99.90;;;;;;5053257;28;20224;-47
2021/12/22 08:18:47;;;;;;;21.55;14.27;;;1.60;99.90;;;;;;5053671;28;20230;-48
2021/12/22 08:21:14;;;;;;;20.77;12.70;;;1.90;99.90;;;;;;5054523;28;20196;-48
2021/12/22 08:23:41;;;;;;;23.30;13.57;;;2.10;99.90;;;;;;5053359;28;20224;-48
2021/12/22 08:26:08;;;;;;;21.85;13.15;;;2.20;99.90;;;;;;5054964;28;20226;-50
2021/12/22 08:28:35;;;;;;;20.85;13.90;;;2.00;99.90;;;;;;5053227;28;20213;-48
2021/12/22 08:31:02;;;;;;;19.08;12.57;;;2.00;99.90;;;;;;5053413;28;20196;-50
2021/12/22 08:33:32;;;;;;;23.55;12.70;;;2.20;99.90;;;;;;5053101;28;20296;-47
2021/12/22 08:39:00;;;;;;;19.35;12.35;;;2.20;99.90;;;;;;5054291;28;20211;-47
2021/12/22 08:41:29;;;;;;;18.08;11.15;;;2.40;99.90;;;;;;5054587;28;20231;-48
2021/12/22 08:44:00;;;;;;;19.13;12.50;;;2.40;99.90;;;;;;5054296;28;20224;-49
2021/12/22 08:46:27;;;;;;;25.13;12.20;;;2.40;99.90;;;;;;5054359;28;20192;-48
2021/12/22 08:48:55;;;;;;;18.17;12.40;;;2.40;99.90;;;;;;5053862;28;20192;-48
2021/12/22 08:51:22;;;;;;;18.02;12.80;;;1.90;99.90;;;;;;5054144;28;20204;-47
2021/12/22 08:53:49;;;;;;;23.58;12.73;;;2.60;99.90;;;;;;5054131;28;20216;-48
2021/12/22 08:56:16;;;;;;;19.08;12.95;;;2.30;99.90;;;;;;5054505;28;20219;-47
2021/12/22 08:58:42;;;;;;;24.08;12.38;;;2.50;99.90;;;;;;5053930;28;20200;-48
2021/12/22 09:01:09;;;;;;;20.98;12.68;;;2.00;99.90;;;;;;5054284;28;20204;-46
2021/12/22 09:03:35;;;;;;;19.65;12.43;;;2.40;99.90;;;;;;5054482;28;20219;-48
2021/12/22 09:06:04;;;;;;;20.58;12.40;;;2.60;99.90;;;;;;5054287;28;20258;-48
2021/12/22 09:08:31;;;;;;;26.10;14.85;;;2.70;99.90;;;;;;5053731;28;20215;-48
2021/12/22 09:10:58;;;;;;;22.80;12.90;;;3.00;99.90;;;;;;5053904;28;20204;-49
2021/12/22 09:13:24;;;;;;;19.10;13.60;;;3.00;99.90;;;;;;5053859;28;20223;-48
2021/12/22 09:15:51;;;;;;;20.85;13.90;;;2.80;99.90;;;;;;5054668;28;20220;-48
2021/12/22 09:18:18;;;;;;;22.70;13.93;;;2.70;99.90;;;;;;5055176;28;20204;-49
2021/12/22 09:20:46;;;;;;;24.25;15.02;;;3.00;99.90;;;;;;5053630;28;20742;-47
2021/12/22 09:23:14;;;;;;;25.23;14.25;;;2.90;99.90;;;;;;5052281;28;20779;-48
2021/12/22 09:25:41;;;;;;;21.40;14.10;;;3.00;99.90;;;;;;5053653;28;20200;-48
2021/12/22 09:28:09;;;;;;;24.98;15.32;;;2.90;99.90;;;;;;5052011;28;20306;-48
2021/12/22 09:30:38;;;;;;;27.42;16.00;;;2.60;99.90;;;;;;5053715;28;20280;-47
2021/12/22 09:33:06;;;;;;;26.08;15.25;;;3.00;99.90;;;;;;5053662;28;20566;-47
2021/12/22 09:35:33;;;;;;;24.73;15.70;;;3.20;99.90;;;;;;5053389;28;20192;-48
2021/12/22 09:38:00;;;;;;;32.20;18.85;;;3.10;99.90;;;;;;5053468;28;20605;-48
2021/12/22 09:40:28;;;;;;;22.30;15.30;;;3.00;99.90;;;;;;5054027;28;20329;-48
2021/12/22 09:42:54;;;;;;;21.48;14.82;;;2.90;99.90;;;;;;5054219;28;20291;-49
2021/12/22 09:45:24;;;;;;;32.13;17.75;;;3.20;99.90;;;;;;5053666;28;20202;-48
2021/12/22 09:48:15;;;;;;;26.23;17.60;;;2.70;99.90;;;;;;5053015;28;20552;-47
2021/12/22 09:50:46;;;;;;;27.88;18.63;;;3.30;99.90;;;;;;5053187;28;20577;-48
2021/12/22 09:53:14;;;;;;;26.48;16.88;;;3.30;99.90;;;;;;5053312;28;20295;-50
2021/12/22 09:55:42;;;;;;;31.88;16.92;;;2.70;99.90;;;;;;5053502;28;20204;-49
2021/12/22 09:58:10;;;;;;;30.58;17.77;;;3.20;99.90;;;;;;5051860;28;20200;-48
2021/12/22 10:00:37;;;;;;;29.15;17.88;;;3.30;99.90;;;;;;5053070;28;20196;-49
2021/12/22 10:03:04;;;;;;;24.90;18.42;;;3.30;99.90;;;;;;5052851;28;20220;-48
2021/12/22 10:05:31;;;;;;;25.95;17.50;;;3.10;99.90;;;;;;5052926;28;20203;-48
2021/12/22 10:08:09;;;;;;;25.33;18.02;;;3.20;99.90;;;;;;5052246;28;20207;-50
2021/12/22 10:10:36;;;;;;;25.13;18.55;;;3.30;99.90;;;;;;5053217;28;20365;-48
2021/12/22 10:13:09;;;;;;;27.20;17.42;;;2.90;99.90;;;;;;5052899;28;20215;-48
2021/12/22 10:15:37;;;;;;;32.33;18.73;;;3.20;99.90;;;;;;5052736;28;20203;-47
2021/12/22 10:18:09;;;;;;;30.13;18.90;;;3.40;99.90;;;;;;5051646;28;20315;-48
2021/12/22 10:20:35;;;;;;;29.20;18.85;;;3.30;99.90;;;;;;5052886;28;20196;-49
2021/12/22 10:23:02;;;;;;;26.98;18.63;;;3.40;99.90;;;;;;5052482;28;20231;-47
2021/12/22 10:25:31;;;;;;;25.65;19.05;;;3.30;99.90;;;;;;5052539;28;20200;-47
2021/12/22 10:28:02;;;;;;;31.90;20.80;;;2.90;99.90;;;;;;5051550;28;20631;-48
2021/12/22 10:30:35;;;;;;;28.33;19.25;;;3.40;99.90;;;;;;5052033;28;20414;-48
2021/12/22 10:33:08;;;;;;;27.83;19.27;;;3.30;99.90;;;;;;5051763;28;20223;-48
2021/12/22 10:35:37;;;;;;;26.45;19.90;;;2.80;99.90;;;;;;5052154;28;20196;-48
2021/12/22 10:38:05;;;;;;;27.38;19.10;;;3.10;99.90;;;;;;5052726;28;20241;-48
2021/12/22 10:40:34;;;;;;;26.88;18.50;;;3.10;99.90;;;;;;5052909;28;20200;-48
2021/12/22 10:43:02;;;;;;;29.08;20.30;;;3.60;99.90;;;;;;5051931;28;20699;-48
2021/12/22 10:45:31;;;;;;;28.67;20.10;;;3.40;99.90;;;;;;5052841;28;20196;-48
2021/12/22 10:50:46;;;;;;;29.45;20.20;;;3.50;99.90;;;;;;5051699;28;20203;-48
2021/12/22 10:53:14;;;;;;;30.40;21.70;;;3.50;99.90;;;;;;5052217;28;20314;-48
2021/12/22 10:55:43;;;;;;;30.65;19.58;;;3.00;99.90;;;;;;5051659;28;20242;-48
2021/12/22 10:58:23;;;;;;;27.95;19.38;;;3.40;99.90;;;;;;5052210;28;20251;-47
2021/12/22 11:01:03;;;;;;;31.92;19.63;;;3.40;99.90;;;;;;5052429;28;20200;-48
2021/12/22 11:03:45;;;;;;;30.63;19.05;;;3.30;99.90;;;;;;5052104;28;20241;-48
2021/12/22 11:06:23;;;;;;;33.10;19.10;;;3.60;99.90;;;;;;5050685;28;20586;-48
2021/12/22 11:08:55;;;;;;;24.20;16.88;;;3.80;99.90;;;;;;5051302;28;20196;-48
2021/12/22 11:11:23;;;;;;;30.85;17.90;;;3.40;99.90;;;;;;5052353;28;20675;-48
2021/12/22 11:14:08;;;;;;;27.20;18.65;;;3.70;99.90;;;;;;5051776;28;20307;-49
2021/12/22 11:16:55;;;;;;;28.60;18.02;;;3.60;99.90;;;;;;5031864;28;20219;-49
2021/12/22 11:19:24;;;;;;;26.38;17.45;;;3.80;99.90;;;;;;5031471;28;20661;-48
2021/12/22 11:22:02;;;;;;;28.05;18.40;;;3.70;99.90;;;;;;5031906;28;20224;-48
2021/12/22 11:24:30;;;;;;;26.45;17.55;;;3.60;99.90;;;;;;5045626;22;20232;-51
2021/12/22 11:26:57;;;;;;;24.20;17.48;;;3.30;99.90;;;;;;5030702;28;20193;-50
2021/12/22 11:29:25;;;;;;;30.42;18.42;;;3.70;99.90;;;;;;5030261;28;20197;-51
2021/12/22 11:31:53;;;;;;;24.73;17.75;;;3.50;99.90;;;;;;5030229;28;20253;-52
2021/12/22 11:34:23;;;;;;;28.30;16.52;;;3.70;99.90;;;;;;5030277;28;20587;-52
2021/12/22 11:36:51;;;;;;;24.33;16.67;;;3.10;99.90;;;;;;5030186;28;20235;-52
2021/12/22 11:39:20;;;;;;;26.92;18.65;;;3.90;99.90;;;;;;5030202;28;20283;-52
2021/12/22 11:41:57;;;;;;;20.65;16.00;;;3.70;99.90;;;;;;5030150;28;20651;-52
2021/12/22 11:44:25;;;;;;;24.00;16.63;;;4.00;99.90;;;;;;5030200;28;20309;-51
2021/12/22 11:46:55;;;;;;;27.15;18.48;;;3.70;99.90;;;;;;5029567;28;20215;-52
2021/12/22 11:49:25;;;;;;;27.77;17.67;;;3.50;99.90;;;;;;5029502;28;20197;-51
2021/12/22 11:51:52;;;;;;;27.50;16.95;;;3.80;99.90;;;;;;5029672;28;20266;-51
2021/12/22 11:54:27;;;;;;;28.02;17.83;;;4.00;99.90;;;;;;5029787;28;20236;-51
2021/12/22 11:56:55;;;;;;;28.48;18.52;;;3.20;99.90;;;;;;5027787;28;20274;-51
2021/12/22 11:59:32;;;;;;;25.02;16.92;;;3.80;99.90;;;;;;5029491;28;20214;-51
2021/12/22 12:02:17;;;;;;;23.20;17.13;;;3.90;99.90;;;;;;5029574;28;20208;-52
2021/12/22 12:04:46;;;;;;;26.63;17.88;;;4.00;99.90;;;;;;5029964;28;20303;-52
2021/12/22 12:07:43;;;;;;;27.13;18.83;;;4.10;99.90;;;;;;5029614;28;20196;-50
2021/12/22 12:10:42;;;;;;;24.35;17.58;;;3.90;99.90;;;;;;5029894;28;20263;-51
2021/12/22 12:13:19;;;;;;;29.20;18.55;;;4.00;99.90;;;;;;5029686;28;20553;-52
2021/12/22 12:22:07;;;;;;;26.05;17.20;;;3.30;99.90;;;;;;5029889;28;20203;-50
2021/12/22 12:24:46;;;;;;;24.10;16.45;;;3.60;99.90;;;;;;5028546;28;20282;-52
2021/12/22 12:27:53;;;;;;;29.92;17.73;;;4.10;99.90;;;;;;5030399;28;20212;-52
2021/12/22 12:30:26;;;;;;;22.90;16.25;;;3.90;99.90;;;;;;5030585;28;20289;-51
2021/12/22 12:33:10;;;;;;;26.20;17.58;;;3.80;99.90;;;;;;5030206;28;20200;-52
2021/12/22 12:35:51;;;;;;;32.55;18.92;;;4.10;99.90;;;;;;5029952;28;20204;-51
2021/12/22 12:38:23;;;;;;;25.42;17.73;;;4.30;99.90;;;;;;5029308;28;20221;-52
2021/12/22 12:41:14;;;;;;;25.92;16.77;;;4.00;99.90;;;;;;5030258;28;20201;-51
2021/12/22 12:43:58;;;;;;;25.70;18.05;;;4.00;99.90;;;;;;5029524;28;20220;-52
2021/12/22 12:46:40;;;;;;;23.02;16.88;;;3.70;99.90;;;;;;5030056;28;20272;-50
2021/12/22 12:49:33;;;;;;;22.25;17.65;;;3.80;99.90;;;;;;5029283;28;20662;-52
2021/12/22 12:52:02;;;;;;;31.23;17.80;;;4.20;99.90;;;;;;5029935;28;20270;-53
2021/12/22 12:54:34;;;;;;;24.23;18.98;;;3.70;99.90;;;;;;5030039;28;20221;-52
2021/12/22 12:57:19;;;;;;;25.88;18.52;;;3.90;99.90;;;;;;5030640;28;20212;-51
2021/12/22 12:59:48;;;;;;;28.40;18.30;;;4.00;99.90;;;;;;5032442;28;20214;-52
2021/12/22 13:02:22;;;;;;;26.33;17.98;;;4.30;99.90;;;;;;5033705;28;20193;-51
2021/12/22 13:04:54;;;;;;;27.20;19.73;;;4.30;99.90;;;;;;5032493;28;20240;-50
2021/12/22 13:07:22;;;;;;;26.48;19.35;;;4.20;99.90;;;;;;5033993;28;20208;-51